createdAt,value
2022-12-04T00:02:22.920Z,20.13
2022-12-04T00:04:49.674Z,21.98
2022-12-04T00:07:16.387Z,23.38
2022-12-04T00:09:43.037Z,22.30
2022-12-04T00:12:09.609Z,21.35
2022-12-04T00:14:54.431Z,21.80
2022-12-04T00:17:22.761Z,23.60
2022-12-04T00:19:49.478Z,23.27
2022-12-04T00:22:16.150Z,23.50
2022-12-04T00:24:42.739Z,21.92
2022-12-04T00:29:34.733Z,22.10
2022-12-04T00:32:01.467Z,20.90
2022-12-04T00:39:19.263Z,24.00
2022-12-04T00:41:45.976Z,23.98
2022-12-04T00:44:12.550Z,23.45
2022-12-04T00:46:39.186Z,22.52
2022-12-04T00:49:05.926Z,22.05
2022-12-04T00:51:32.563Z,21.45
2022-12-04T00:53:59.181Z,19.85
2022-12-04T00:56:27.177Z,21.85
2022-12-04T00:58:54.525Z,21.90
2022-12-04T01:01:21.847Z,23.48
2022-12-04T01:11:15.897Z,20.60
2022-12-04T01:13:42.621Z,22.27
2022-12-04T01:16:09.388Z,21.92
2022-12-04T01:18:36.125Z,22.05
2022-12-04T01:21:02.822Z,22.70
2022-12-04T01:23:29.471Z,23.25
2022-12-04T01:25:57.491Z,21.77
2022-12-04T01:28:24.157Z,22.92
2022-12-04T01:31:00.442Z,21.50
2022-12-04T01:33:27.272Z,22.20
2022-12-04T01:35:54.517Z,23.10
2022-12-04T01:40:46.653Z,22.17
2022-12-04T01:43:13.397Z,22.95
2022-12-04T01:45:44.113Z,22.67
2022-12-04T01:48:18.905Z,23.60
2022-12-04T01:50:45.999Z,22.90
2022-12-04T01:53:13.849Z,21.83
2022-12-04T01:55:40.937Z,23.15
2022-12-04T02:00:33.946Z,19.88
2022-12-04T02:03:00.721Z,22.42
2022-12-04T02:05:27.794Z,20.60
2022-12-04T02:07:57.290Z,22.38
2022-12-04T02:10:28.247Z,22.67
2022-12-04T02:13:03.184Z,26.35
2022-12-04T02:18:12.628Z,35.40
2022-12-04T02:20:43.324Z,38.20
2022-12-04T02:23:28.443Z,34.40
2022-12-04T02:28:53.775Z,37.30
2022-12-04T02:31:23.041Z,28.42
2022-12-04T02:34:06.866Z,31.50
2022-12-04T02:39:01.689Z,21.90
2022-12-04T02:41:36.573Z,29.67
2022-12-04T02:44:14.353Z,30.80
2022-12-04T02:46:43.682Z,22.92
2022-12-04T02:49:21.243Z,21.40
2022-12-04T02:51:49.131Z,30.85
2022-12-04T02:54:45.113Z,29.27
2022-12-04T03:02:22.169Z,27.45
2022-12-04T03:04:50.788Z,27.88
2022-12-04T03:07:33.029Z,25.15
2022-12-04T03:10:01.099Z,23.10
2022-12-04T03:12:30.688Z,23.27
2022-12-04T03:15:02.545Z,23.88
2022-12-04T03:17:38.337Z,22.95
2022-12-04T03:22:35.088Z,34.45
2022-12-04T03:25:03.842Z,23.77
2022-12-04T03:37:43.133Z,30.52
2022-12-04T03:40:20.216Z,25.58
2022-12-04T03:42:49.685Z,28.52
2022-12-04T03:45:19.093Z,26.50
2022-12-04T03:47:54.477Z,34.28
2022-12-04T03:50:30.942Z,25.83
2022-12-04T03:53:04.691Z,24.63
2022-12-04T03:55:35.053Z,29.98
2022-12-04T03:58:06.172Z,27.98
2022-12-04T04:00:33.230Z,22.05
2022-12-04T04:03:03.603Z,26.58
2022-12-04T04:08:17.913Z,24.80
2022-12-04T04:13:31.885Z,25.25
2022-12-04T04:26:45.049Z,18.52
2022-12-04T04:29:11.836Z,21.33
2022-12-04T04:34:20.877Z,21.05
2022-12-04T04:39:40.368Z,23.60
2022-12-04T04:49:34.073Z,23.50
2022-12-04T04:56:53.670Z,21.33
2022-12-04T04:59:20.348Z,22.50
2022-12-04T05:04:13.164Z,22.05
2022-12-04T05:06:39.877Z,22.55
2022-12-04T05:11:31.918Z,23.33
2022-12-04T05:13:58.573Z,21.67
2022-12-04T05:19:09.028Z,22.80
2022-12-04T05:26:26.698Z,25.98
2022-12-04T05:28:53.361Z,25.48
2022-12-04T05:31:20.052Z,16.70
2022-12-04T05:33:46.838Z,23.75
2022-12-04T05:43:29.815Z,25.58
2022-12-04T05:48:26.069Z,25.95
2022-12-04T05:50:52.773Z,24.23
2022-12-04T05:58:10.240Z,21.95
2022-12-04T06:00:36.954Z,23.05
2022-12-04T06:03:03.831Z,23.58
2022-12-04T06:05:32.337Z,24.67
2022-12-04T06:10:24.534Z,24.60
2022-12-04T06:12:51.150Z,22.13
2022-12-04T06:15:17.887Z,24.27
2022-12-04T06:17:44.521Z,22.05
2022-12-04T06:20:12.075Z,23.70
2022-12-04T06:29:55.504Z,23.75
2022-12-04T06:32:22.531Z,24.17
2022-12-04T06:34:53.032Z,24.42
2022-12-04T06:39:45.638Z,22.92
2022-12-04T06:42:12.287Z,22.63
2022-12-04T06:47:05.374Z,24.63
2022-12-04T06:49:32.068Z,23.13
2022-12-04T06:54:24.109Z,23.52
2022-12-04T06:56:50.882Z,23.25
2022-12-04T06:59:17.514Z,23.52
2022-12-04T07:06:36.678Z,25.73
2022-12-04T07:09:11.293Z,24.33
2022-12-04T07:11:38.487Z,25.00
2022-12-04T07:14:05.137Z,23.35
2022-12-04T07:23:51.346Z,28.20
2022-12-04T07:26:18.782Z,27.02
2022-12-04T07:28:45.376Z,24.50
2022-12-04T07:31:13.868Z,25.23
2022-12-04T07:33:40.882Z,27.58
2022-12-04T07:36:08.999Z,23.77
2022-12-04T07:48:18.451Z,27.13
2022-12-04T07:50:45.570Z,26.40
2022-12-04T07:58:03.439Z,22.23
2022-12-04T08:00:31.597Z,26.98
2022-12-04T08:02:58.336Z,20.83
2022-12-04T08:05:24.956Z,24.30
2022-12-04T08:07:52.359Z,27.60
2022-12-04T08:12:44.529Z,21.23
2022-12-04T08:15:11.335Z,25.48
2022-12-04T08:17:37.970Z,22.40
2022-12-04T08:24:55.924Z,25.23
2022-12-04T08:27:23.368Z,22.45
2022-12-04T08:29:49.975Z,22.58
2022-12-04T08:32:16.615Z,21.85
2022-12-04T08:34:44.003Z,20.95
2022-12-04T08:37:10.662Z,24.15
2022-12-04T08:39:37.312Z,25.38
2022-12-04T08:42:04.112Z,22.67
2022-12-04T08:44:30.768Z,21.52
2022-12-04T08:46:57.471Z,21.08
2022-12-04T08:49:24.120Z,21.00
2022-12-04T08:51:50.829Z,21.23
2022-12-04T08:54:17.478Z,20.02
2022-12-04T08:56:44.662Z,23.00
2022-12-04T09:01:38.285Z,20.33
2022-12-04T09:04:05.031Z,30.85
2022-12-04T09:06:31.791Z,20.60
2022-12-04T09:08:58.521Z,17.70
2022-12-04T09:11:26.545Z,18.77
2022-12-04T09:13:56.363Z,19.27
2022-12-04T09:16:25.991Z,19.90
2022-12-04T09:18:53.271Z,16.33
2022-12-04T09:21:20.841Z,17.58
2022-12-04T09:23:47.994Z,17.23
2022-12-04T09:26:19.728Z,16.00
2022-12-04T09:28:46.576Z,17.38
2022-12-04T09:31:13.354Z,19.85
2022-12-04T09:33:40.084Z,17.80
2022-12-04T09:36:06.986Z,16.02
2022-12-04T09:38:33.637Z,17.25
2022-12-04T09:43:44.309Z,15.05
2022-12-04T09:48:43.129Z,16.40
2022-12-04T09:56:13.561Z,15.75
2022-12-04T10:01:23.438Z,17.00
2022-12-04T10:03:50.510Z,17.13
2022-12-04T10:06:23.824Z,18.95
2022-12-04T10:08:53.704Z,18.17
2022-12-04T10:13:54.926Z,17.27
2022-12-04T10:16:41.823Z,16.42
2022-12-04T10:21:33.715Z,14.90
2022-12-04T10:29:13.454Z,15.90
2022-12-04T10:31:43.392Z,14.85
2022-12-04T10:46:47.302Z,14.57
2022-12-04T10:49:20.018Z,15.82
2022-12-04T10:54:18.550Z,13.80
2022-12-04T11:01:47.617Z,16.25
2022-12-04T11:04:26.077Z,14.80
2022-12-04T11:07:07.715Z,15.15
2022-12-04T11:09:34.819Z,15.05
2022-12-04T11:12:09.634Z,14.45
2022-12-04T11:17:04.738Z,18.13
2022-12-04T11:19:33.724Z,15.27
2022-12-04T11:22:04.205Z,16.02
2022-12-04T11:34:36.086Z,19.83
2022-12-04T11:37:03.132Z,19.25
2022-12-04T11:39:40.446Z,15.38
2022-12-04T11:44:33.929Z,15.05
2022-12-04T11:47:02.746Z,15.85
2022-12-04T11:49:31.255Z,15.25
2022-12-04T11:52:04.612Z,15.07
2022-12-04T11:54:50.058Z,15.90
2022-12-04T11:57:27.011Z,15.70
2022-12-04T12:00:12.108Z,14.43
2022-12-04T12:02:38.772Z,17.73
2022-12-04T12:05:11.250Z,19.50
2022-12-04T12:15:45.050Z,17.63
2022-12-04T12:18:20.861Z,18.23
2022-12-04T12:20:48.937Z,16.90
2022-12-04T12:38:37.668Z,17.75
2022-12-04T12:41:06.731Z,18.13
2022-12-04T12:43:35.469Z,19.08
2022-12-04T12:48:40.350Z,19.15
2022-12-04T12:53:39.724Z,17.27
2022-12-04T12:56:08.890Z,21.02
2022-12-04T12:58:42.055Z,19.48
2022-12-04T13:01:27.757Z,18.58
2022-12-04T13:04:00.207Z,19.58
2022-12-04T13:06:34.865Z,18.88
2022-12-04T13:09:20.084Z,20.65
2022-12-04T13:11:48.763Z,20.20
2022-12-04T13:14:15.461Z,21.90
2022-12-04T13:19:18.141Z,20.15
2022-12-04T13:24:28.950Z,21.65
2022-12-04T13:26:56.680Z,18.10
2022-12-04T13:36:57.266Z,19.35
2022-12-04T13:39:34.760Z,20.45
2022-12-04T13:42:02.763Z,19.63
2022-12-04T13:44:30.214Z,18.77
2022-12-04T13:47:01.542Z,18.38
2022-12-04T13:49:29.958Z,19.95
2022-12-04T13:51:57.709Z,18.10
2022-12-04T13:57:15.572Z,20.40
2022-12-04T14:02:25.729Z,18.88
2022-12-04T14:07:25.369Z,18.20
2022-12-04T14:12:31.222Z,22.23
2022-12-04T14:15:03.406Z,20.73
2022-12-04T14:17:39.553Z,24.65
2022-12-04T14:27:40.732Z,20.60
2022-12-04T14:30:28.544Z,22.25
2022-12-04T14:38:00.782Z,18.65
2022-12-04T14:42:54.935Z,18.85
2022-12-04T14:45:45.482Z,22.38
2022-12-04T14:48:31.034Z,20.67
2022-12-04T14:54:00.565Z,21.70
2022-12-04T14:56:36.182Z,19.65
2022-12-04T15:01:37.372Z,19.15
2022-12-04T15:06:49.696Z,20.42
2022-12-04T15:09:39.503Z,23.20
2022-12-04T15:12:33.606Z,21.52
2022-12-04T15:28:12.685Z,32.20
2022-12-04T15:30:41.327Z,28.63
2022-12-04T15:33:15.186Z,24.83
2022-12-04T15:38:14.793Z,27.98
2022-12-04T15:40:54.184Z,24.42
2022-12-04T15:43:28.769Z,25.52
2022-12-04T15:45:55.769Z,24.85
2022-12-04T15:48:31.603Z,25.85
2022-12-04T15:53:30.399Z,25.33
2022-12-04T15:55:59.523Z,25.90
2022-12-04T15:58:28.181Z,23.88
2022-12-04T16:00:56.049Z,25.25
2022-12-04T16:03:22.703Z,21.73
2022-12-04T16:05:49.376Z,21.70
2022-12-04T16:08:23.376Z,21.45
2022-12-04T16:10:58.915Z,21.52
2022-12-04T16:13:31.628Z,22.48
2022-12-04T16:20:53.345Z,21.05
2022-12-04T16:25:47.292Z,20.90
2022-12-04T16:28:15.677Z,21.05
2022-12-04T16:30:42.545Z,26.00
2022-12-04T16:33:12.841Z,27.73
2022-12-04T16:35:39.777Z,20.33
2022-12-04T16:40:48.577Z,19.85
2022-12-04T16:43:16.122Z,19.85
2022-12-04T16:45:45.963Z,20.00
2022-12-04T16:48:12.842Z,19.85
2022-12-04T16:50:47.388Z,21.35
2022-12-04T16:55:45.200Z,21.02
2022-12-04T16:58:11.886Z,19.42
2022-12-04T17:03:04.789Z,18.83
2022-12-04T17:05:33.486Z,19.40
2022-12-04T17:08:00.850Z,20.67
2022-12-04T17:10:27.648Z,19.08
2022-12-04T17:12:55.608Z,21.15
2022-12-04T17:22:40.450Z,20.25
2022-12-04T17:27:33.060Z,20.90
2022-12-04T17:30:00.242Z,21.15
2022-12-04T17:32:27.837Z,20.42
2022-12-04T17:34:55.000Z,19.50
2022-12-04T17:37:21.840Z,21.15
2022-12-04T17:39:48.546Z,20.35
2022-12-04T17:42:16.709Z,21.30
2022-12-04T17:44:44.069Z,20.13
2022-12-04T17:52:01.804Z,19.88
2022-12-04T17:54:28.588Z,21.20
2022-12-04T17:56:57.916Z,20.38
2022-12-04T17:59:24.872Z,20.48
2022-12-04T18:01:51.659Z,19.98
2022-12-04T18:04:18.973Z,20.33
2022-12-04T18:06:45.977Z,20.58
2022-12-04T18:14:11.735Z,20.55
2022-12-04T18:16:40.934Z,19.98
2022-12-04T18:24:00.195Z,21.40
2022-12-04T18:26:27.873Z,20.67
2022-12-04T18:28:55.113Z,20.08
2022-12-04T18:31:22.038Z,21.65
2022-12-04T18:33:49.177Z,22.73
2022-12-04T18:36:20.108Z,20.95
2022-12-04T18:38:47.442Z,21.42
2022-12-04T18:41:14.561Z,21.20
2022-12-04T18:53:26.438Z,22.80
2022-12-04T18:55:54.045Z,21.70
2022-12-04T19:03:13.838Z,20.55
2022-12-04T19:05:50.672Z,30.70
2022-12-04T19:10:43.415Z,20.70
2022-12-04T19:13:10.161Z,23.17
2022-12-04T19:15:41.515Z,21.63
2022-12-04T19:18:08.239Z,24.55
2022-12-04T19:20:35.092Z,23.20
2022-12-04T19:23:02.059Z,23.58
2022-12-04T19:27:54.224Z,23.48
2022-12-04T19:30:21.096Z,24.27
2022-12-04T19:32:47.873Z,28.58
2022-12-04T19:35:14.596Z,32.47
2022-12-04T19:37:42.284Z,33.42
2022-12-04T19:40:10.233Z,34.85
2022-12-04T19:42:36.889Z,35.15
2022-12-04T19:45:03.787Z,31.42
2022-12-04T19:52:21.247Z,34.10
2022-12-04T19:59:45.748Z,27.75
2022-12-04T20:09:31.388Z,22.45
2022-12-04T20:11:58.085Z,26.35
2022-12-04T20:14:26.350Z,22.60
2022-12-04T20:19:19.059Z,54.35
2022-12-04T20:21:46.727Z,32.17
2022-12-04T20:24:15.015Z,33.83
2022-12-04T20:26:42.925Z,32.72
2022-12-04T20:29:10.972Z,49.22
2022-12-04T20:31:38.341Z,26.10
2022-12-04T20:36:35.645Z,25.77
2022-12-04T20:39:02.449Z,22.73
2022-12-04T20:43:55.882Z,22.90
2022-12-04T20:46:23.904Z,27.13
2022-12-04T20:48:52.024Z,23.65
2022-12-04T20:51:23.208Z,23.42
2022-12-04T20:53:50.512Z,22.98
2022-12-04T20:58:44.505Z,23.73
2022-12-04T21:01:12.572Z,24.15
2022-12-04T21:03:39.669Z,31.65
2022-12-04T21:06:12.270Z,38.13
2022-12-04T21:11:23.226Z,43.97
2022-12-04T21:14:08.368Z,37.65
2022-12-04T21:16:37.191Z,43.40
2022-12-04T21:19:05.012Z,46.33
2022-12-04T21:23:57.123Z,74.97
2022-12-04T21:26:23.910Z,55.67
2022-12-04T21:31:15.967Z,46.00
2022-12-04T21:33:42.646Z,39.22
2022-12-04T21:36:09.666Z,44.40
2022-12-04T21:38:37.197Z,34.28
2022-12-04T21:41:04.565Z,27.70
2022-12-04T21:43:32.054Z,33.03
2022-12-04T21:46:09.213Z,27.92
2022-12-04T21:58:23.736Z,37.58
2022-12-04T22:00:50.873Z,33.67
2022-12-04T22:03:18.153Z,31.52
2022-12-04T22:05:44.874Z,30.90
2022-12-04T22:08:12.284Z,29.55
2022-12-04T22:10:42.964Z,27.48
2022-12-04T22:13:09.826Z,30.88
2022-12-04T22:15:40.480Z,27.67
2022-12-04T22:18:07.980Z,26.50
2022-12-04T22:20:34.789Z,27.77
2022-12-04T22:23:03.224Z,25.40
2022-12-04T22:25:30.357Z,25.65
2022-12-04T22:28:00.142Z,26.10
2022-12-04T22:30:27.521Z,23.35
2022-12-04T22:32:54.290Z,25.75
2022-12-04T22:35:21.014Z,25.42
2022-12-04T22:37:47.853Z,26.23
2022-12-04T22:40:15.443Z,28.02
2022-12-04T22:42:42.722Z,27.42
2022-12-04T22:45:09.760Z,28.13
2022-12-04T22:47:36.615Z,29.73
2022-12-04T22:52:30.195Z,31.38
2022-12-04T22:54:56.861Z,37.70
2022-12-04T22:57:23.563Z,27.13
2022-12-04T22:59:50.322Z,26.30
2022-12-04T23:02:17.071Z,27.00
2022-12-04T23:04:43.918Z,24.67
2022-12-04T23:07:10.631Z,25.42
2022-12-04T23:09:37.275Z,25.95
2022-12-04T23:14:29.513Z,26.65
2022-12-04T23:16:56.536Z,23.85
2022-12-04T23:19:23.237Z,24.27
2022-12-04T23:21:56.607Z,23.45
2022-12-04T23:26:49.336Z,24.15
2022-12-04T23:29:50.981Z,27.23
2022-12-04T23:32:02.658Z,25.73
2022-12-04T23:34:29.418Z,25.10
2022-12-04T23:36:55.995Z,24.52
2022-12-04T23:41:48.045Z,21.20
2022-12-04T23:44:14.674Z,20.17
2022-12-04T23:46:41.494Z,21.65
2022-12-04T23:49:08.628Z,23.45
2022-12-04T23:51:35.303Z,23.75
2022-12-04T23:54:01.944Z,25.83
2022-12-04T23:56:28.698Z,25.50
2022-12-04T23:58:56.187Z,25.25
